sensor_id;sensor_type;location;lat;lon;timestamp;P1;durP1;ratioP1;P2;durP2;ratioP2
23113;SDS011;11726;50.122;8.832;2022-12-29T00:00:03;3.10;;;1.90;;
23113;SDS011;11726;50.122;8.832;2022-12-29T00:02:31;2.85;;;1.70;;
23113;SDS011;11726;50.122;8.832;2022-12-29T00:04:58;3.78;;;1.83;;
23113;SDS011;11726;50.122;8.832;2022-12-29T00:07:24;2.92;;;1.83;;
23113;SDS011;11726;50.122;8.832;2022-12-29T00:09:51;3.20;;;1.80;;
23113;SDS011;11726;50.122;8.832;2022-12-29T00:12:17;2.83;;;1.88;;
23113;SDS011;11726;50.122;8.832;2022-12-29T00:14:44;4.70;;;1.90;;
23113;SDS011;11726;50.122;8.832;2022-12-29T00:17:29;3.42;;;2.03;;
23113;SDS011;11726;50.122;8.832;2022-12-29T00:19:56;4.05;;;2.00;;
23113;SDS011;11726;50.122;8.832;2022-12-29T00:22:42;4.47;;;1.83;;
23113;SDS011;11726;50.122;8.832;2022-12-29T00:25:28;3.60;;;2.15;;
23113;SDS011;11726;50.122;8.832;2022-12-29T00:28:13;3.42;;;2.08;;
23113;SDS011;11726;50.122;8.832;2022-12-29T00:30:59;2.85;;;1.90;;
23113;SDS011;11726;50.122;8.832;2022-12-29T00:33:45;3.45;;;1.90;;
23113;SDS011;11726;50.122;8.832;2022-12-29T00:36:32;3.85;;;2.10;;
23113;SDS011;11726;50.122;8.832;2022-12-29T00:39:03;3.88;;;2.50;;
23113;SDS011;11726;50.122;8.832;2022-12-29T00:41:55;3.20;;;2.15;;
23113;SDS011;11726;50.122;8.832;2022-12-29T00:44:40;3.85;;;2.20;;
23113;SDS011;11726;50.122;8.832;2022-12-29T00:47:07;5.07;;;2.20;;
23113;SDS011;11726;50.122;8.832;2022-12-29T00:49:33;4.93;;;2.20;;
23113;SDS011;11726;50.122;8.832;2022-12-29T00:52:01;4.13;;;2.13;;
23113;SDS011;11726;50.122;8.832;2022-12-29T00:54:34;4.00;;;2.20;;
23113;SDS011;11726;50.122;8.832;2022-12-29T00:57:02;3.85;;;2.30;;
23113;SDS011;11726;50.122;8.832;2022-12-29T00:59:30;3.28;;;2.00;;
23113;SDS011;11726;50.122;8.832;2022-12-29T01:01:57;3.15;;;2.08;;
23113;SDS011;11726;50.122;8.832;2022-12-29T01:04:25;2.97;;;1.95;;
23113;SDS011;11726;50.122;8.832;2022-12-29T01:06:52;3.97;;;2.00;;
23113;SDS011;11726;50.122;8.832;2022-12-29T01:09:19;3.30;;;1.90;;
23113;SDS011;11726;50.122;8.832;2022-12-29T01:12:04;4.18;;;1.83;;
23113;SDS011;11726;50.122;8.832;2022-12-29T01:14:32;4.68;;;2.15;;
23113;SDS011;11726;50.122;8.832;2022-12-29T01:16:59;2.65;;;1.90;;
23113;SDS011;11726;50.122;8.832;2022-12-29T01:19:25;3.70;;;2.22;;
23113;SDS011;11726;50.122;8.832;2022-12-29T01:21:52;3.03;;;2.00;;
23113;SDS011;11726;50.122;8.832;2022-12-29T01:24:19;3.38;;;1.70;;
23113;SDS011;11726;50.122;8.832;2022-12-29T01:26:46;3.08;;;1.80;;
23113;SDS011;11726;50.122;8.832;2022-12-29T01:29:13;2.50;;;1.83;;
23113;SDS011;11726;50.122;8.832;2022-12-29T01:31:40;4.40;;;2.08;;
23113;SDS011;11726;50.122;8.832;2022-12-29T01:34:07;2.53;;;1.65;;
23113;SDS011;11726;50.122;8.832;2022-12-29T01:36:33;2.65;;;1.77;;
23113;SDS011;11726;50.122;8.832;2022-12-29T01:39:00;6.57;;;1.92;;
23113;SDS011;11726;50.122;8.832;2022-12-29T01:41:27;5.25;;;1.75;;
23113;SDS011;11726;50.122;8.832;2022-12-29T01:43:55;2.72;;;1.60;;
23113;SDS011;11726;50.122;8.832;2022-12-29T01:51:59;1.92;;;1.25;;
23113;SDS011;11726;50.122;8.832;2022-12-29T01:54:31;3.47;;;1.60;;
23113;SDS011;11726;50.122;8.832;2022-12-29T01:57:05;2.22;;;1.35;;
23113;SDS011;11726;50.122;8.832;2022-12-29T01:59:40;2.15;;;1.60;;
23113;SDS011;11726;50.122;8.832;2022-12-29T02:02:12;2.20;;;1.40;;
23113;SDS011;11726;50.122;8.832;2022-12-29T02:04:40;1.75;;;1.27;;
23113;SDS011;11726;50.122;8.832;2022-12-29T02:07:11;1.95;;;1.30;;
23113;SDS011;11726;50.122;8.832;2022-12-29T02:09:46;2.70;;;1.48;;
23113;SDS011;11726;50.122;8.832;2022-12-29T02:12:15;2.42;;;1.63;;
23113;SDS011;11726;50.122;8.832;2022-12-29T02:14:43;3.47;;;1.48;;
23113;SDS011;11726;50.122;8.832;2022-12-29T02:17:26;1.80;;;1.40;;
23113;SDS011;11726;50.122;8.832;2022-12-29T02:33:57;0.80;;;0.80;;
23113;SDS011;11726;50.122;8.832;2022-12-29T02:36:58;2.22;;;1.20;;
23113;SDS011;11726;50.122;8.832;2022-12-29T02:39:41;1.80;;;1.00;;
23113;SDS011;11726;50.122;8.832;2022-12-29T02:47:42;2.20;;;1.00;;
23113;SDS011;11726;50.122;8.832;2022-12-29T02:50:33;1.35;;;1.13;;
23113;SDS011;11726;50.122;8.832;2022-12-29T02:53:31;1.52;;;0.80;;
23113;SDS011;11726;50.122;8.832;2022-12-29T02:56:18;1.20;;;0.90;;
23113;SDS011;11726;50.122;8.832;2022-12-29T02:58:45;4.38;;;1.05;;
23113;SDS011;11726;50.122;8.832;2022-12-29T03:06:46;1.40;;;0.90;;
23113;SDS011;11726;50.122;8.832;2022-12-29T03:12:18;1.23;;;0.90;;
23113;SDS011;11726;50.122;8.832;2022-12-29T03:15:12;1.00;;;0.70;;
23113;SDS011;11726;50.122;8.832;2022-12-29T03:18:09;2.25;;;1.05;;
23113;SDS011;11726;50.122;8.832;2022-12-29T03:20:55;0.90;;;0.90;;
23113;SDS011;11726;50.122;8.832;2022-12-29T03:23:28;2.13;;;0.80;;
23113;SDS011;11726;50.122;8.832;2022-12-29T03:25:56;1.60;;;1.20;;
23113;SDS011;11726;50.122;8.832;2022-12-29T03:28:30;2.83;;;0.85;;
23113;SDS011;11726;50.122;8.832;2022-12-29T03:31:02;2.92;;;0.98;;
23113;SDS011;11726;50.122;8.832;2022-12-29T03:33:30;1.73;;;1.13;;
23113;SDS011;11726;50.122;8.832;2022-12-29T03:36:00;2.65;;;1.00;;
23113;SDS011;11726;50.122;8.832;2022-12-29T03:41:11;3.47;;;1.10;;
23113;SDS011;11726;50.122;8.832;2022-12-29T03:43:43;2.65;;;1.20;;
23113;SDS011;11726;50.122;8.832;2022-12-29T03:46:10;1.50;;;0.90;;
23113;SDS011;11726;50.122;8.832;2022-12-29T03:48:36;2.63;;;1.20;;
23113;SDS011;11726;50.122;8.832;2022-12-29T03:51:03;3.67;;;1.15;;
23113;SDS011;11726;50.122;8.832;2022-12-29T03:53:30;2.47;;;0.98;;
23113;SDS011;11726;50.122;8.832;2022-12-29T03:55:56;2.00;;;1.10;;
23113;SDS011;11726;50.122;8.832;2022-12-29T03:58:23;3.40;;;1.00;;
23113;SDS011;11726;50.122;8.832;2022-12-29T04:00:49;4.43;;;1.20;;
23113;SDS011;11726;50.122;8.832;2022-12-29T04:03:16;2.90;;;1.13;;
23113;SDS011;11726;50.122;8.832;2022-12-29T04:05:43;2.53;;;1.00;;
23113;SDS011;11726;50.122;8.832;2022-12-29T04:08:10;2.50;;;1.20;;
23113;SDS011;11726;50.122;8.832;2022-12-29T04:10:36;1.88;;;1.08;;
23113;SDS011;11726;50.122;8.832;2022-12-29T04:13:03;1.38;;;0.93;;
23113;SDS011;11726;50.122;8.832;2022-12-29T04:15:30;1.40;;;1.10;;
23113;SDS011;11726;50.122;8.832;2022-12-29T04:17:57;2.35;;;1.30;;
23113;SDS011;11726;50.122;8.832;2022-12-29T04:20:24;2.28;;;1.45;;
23113;SDS011;11726;50.122;8.832;2022-12-29T04:23:09;2.10;;;1.00;;
23113;SDS011;11726;50.122;8.832;2022-12-29T04:25:36;4.47;;;1.20;;
23113;SDS011;11726;50.122;8.832;2022-12-29T04:28:03;3.22;;;1.20;;
23113;SDS011;11726;50.122;8.832;2022-12-29T04:30:29;4.20;;;1.50;;
23113;SDS011;11726;50.122;8.832;2022-12-29T04:32:56;2.58;;;1.20;;
23113;SDS011;11726;50.122;8.832;2022-12-29T04:35:22;3.78;;;1.80;;
23113;SDS011;11726;50.122;8.832;2022-12-29T04:37:49;2.78;;;1.30;;
23113;SDS011;11726;50.122;8.832;2022-12-29T04:40:15;1.60;;;1.20;;
23113;SDS011;11726;50.122;8.832;2022-12-29T04:42:42;3.78;;;1.40;;
23113;SDS011;11726;50.122;8.832;2022-12-29T04:45:09;1.75;;;1.20;;
23113;SDS011;11726;50.122;8.832;2022-12-29T04:47:36;2.97;;;1.35;;
23113;SDS011;11726;50.122;8.832;2022-12-29T04:50:03;3.03;;;1.35;;
23113;SDS011;11726;50.122;8.832;2022-12-29T04:52:30;3.05;;;1.20;;
23113;SDS011;11726;50.122;8.832;2022-12-29T04:54:57;3.08;;;1.25;;
23113;SDS011;11726;50.122;8.832;2022-12-29T04:57:23;4.07;;;1.10;;
23113;SDS011;11726;50.122;8.832;2022-12-29T04:59:50;2.83;;;1.30;;
23113;SDS011;11726;50.122;8.832;2022-12-29T05:02:17;3.28;;;1.25;;
23113;SDS011;11726;50.122;8.832;2022-12-29T05:04:44;2.55;;;1.10;;
23113;SDS011;11726;50.122;8.832;2022-12-29T05:07:11;2.25;;;1.00;;
23113;SDS011;11726;50.122;8.832;2022-12-29T05:09:37;2.55;;;1.10;;
23113;SDS011;11726;50.122;8.832;2022-12-29T05:12:04;3.85;;;1.38;;
23113;SDS011;11726;50.122;8.832;2022-12-29T05:14:31;3.40;;;0.90;;
23113;SDS011;11726;50.122;8.832;2022-12-29T05:16:58;2.53;;;1.00;;
23113;SDS011;11726;50.122;8.832;2022-12-29T05:19:24;1.58;;;1.02;;
23113;SDS011;11726;50.122;8.832;2022-12-29T05:21:51;3.20;;;1.30;;
23113;SDS011;11726;50.122;8.832;2022-12-29T05:24:18;2.58;;;1.23;;
23113;SDS011;11726;50.122;8.832;2022-12-29T05:26:44;4.03;;;1.30;;
23113;SDS011;11726;50.122;8.832;2022-12-29T05:29:11;2.05;;;1.23;;
23113;SDS011;11726;50.122;8.832;2022-12-29T05:31:37;2.72;;;1.20;;
23113;SDS011;11726;50.122;8.832;2022-12-29T05:34:04;2.70;;;1.50;;
23113;SDS011;11726;50.122;8.832;2022-12-29T05:36:31;6.15;;;1.30;;
23113;SDS011;11726;50.122;8.832;2022-12-29T05:39:03;5.00;;;1.50;;
23113;SDS011;11726;50.122;8.832;2022-12-29T05:41:30;4.10;;;1.23;;
23113;SDS011;11726;50.122;8.832;2022-12-29T05:43:56;3.42;;;1.17;;
23113;SDS011;11726;50.122;8.832;2022-12-29T05:46:23;1.88;;;0.93;;
23113;SDS011;11726;50.122;8.832;2022-12-29T05:48:50;2.08;;;1.10;;
23113;SDS011;11726;50.122;8.832;2022-12-29T05:51:16;1.70;;;0.88;;
23113;SDS011;11726;50.122;8.832;2022-12-29T05:53:43;2.15;;;0.95;;
23113;SDS011;11726;50.122;8.832;2022-12-29T05:56:10;1.00;;;0.90;;
23113;SDS011;11726;50.122;8.832;2022-12-29T05:58:36;1.67;;;1.15;;
23113;SDS011;11726;50.122;8.832;2022-12-29T06:01:03;2.22;;;1.00;;
23113;SDS011;11726;50.122;8.832;2022-12-29T06:03:30;1.23;;;0.75;;
23113;SDS011;11726;50.122;8.832;2022-12-29T06:05:57;2.63;;;1.08;;
23113;SDS011;11726;50.122;8.832;2022-12-29T06:08:23;2.15;;;1.13;;
23113;SDS011;11726;50.122;8.832;2022-12-29T06:10:50;2.65;;;1.38;;
23113;SDS011;11726;50.122;8.832;2022-12-29T06:13:16;1.60;;;0.98;;
23113;SDS011;11726;50.122;8.832;2022-12-29T06:15:43;3.80;;;1.30;;
23113;SDS011;11726;50.122;8.832;2022-12-29T06:18:10;1.77;;;1.20;;
23113;SDS011;11726;50.122;8.832;2022-12-29T06:20:44;1.42;;;1.02;;
23113;SDS011;11726;50.122;8.832;2022-12-29T06:23:11;3.38;;;1.10;;
23113;SDS011;11726;50.122;8.832;2022-12-29T06:25:39;1.52;;;1.20;;
23113;SDS011;11726;50.122;8.832;2022-12-29T06:28:06;4.32;;;1.30;;
23113;SDS011;11726;50.122;8.832;2022-12-29T06:30:32;2.97;;;1.27;;
23113;SDS011;11726;50.122;8.832;2022-12-29T06:32:59;2.55;;;1.17;;
23113;SDS011;11726;50.122;8.832;2022-12-29T06:35:26;3.10;;;1.00;;
23113;SDS011;11726;50.122;8.832;2022-12-29T06:37:53;1.80;;;0.98;;
23113;SDS011;11726;50.122;8.832;2022-12-29T06:40:20;3.03;;;1.00;;
23113;SDS011;11726;50.122;8.832;2022-12-29T06:42:47;4.32;;;1.02;;
23113;SDS011;11726;50.122;8.832;2022-12-29T06:45:14;2.05;;;1.00;;
23113;SDS011;11726;50.122;8.832;2022-12-29T06:47:42;4.18;;;1.40;;
23113;SDS011;11726;50.122;8.832;2022-12-29T06:50:09;3.08;;;1.45;;
23113;SDS011;11726;50.122;8.832;2022-12-29T06:52:36;4.20;;;1.10;;
23113;SDS011;11726;50.122;8.832;2022-12-29T06:55:03;4.93;;;1.30;;
23113;SDS011;11726;50.122;8.832;2022-12-29T06:57:29;2.50;;;1.40;;
23113;SDS011;11726;50.122;8.832;2022-12-29T06:59:56;1.70;;;1.40;;
23113;SDS011;11726;50.122;8.832;2022-12-29T07:02:23;3.60;;;1.33;;
23113;SDS011;11726;50.122;8.832;2022-12-29T07:04:52;2.30;;;1.20;;
23113;SDS011;11726;50.122;8.832;2022-12-29T07:07:19;3.95;;;1.35;;
23113;SDS011;11726;50.122;8.832;2022-12-29T07:09:46;3.00;;;1.20;;
23113;SDS011;11726;50.122;8.832;2022-12-29T07:12:13;2.60;;;1.65;;
23113;SDS011;11726;50.122;8.832;2022-12-29T07:14:39;3.95;;;1.33;;
23113;SDS011;11726;50.122;8.832;2022-12-29T07:17:08;5.93;;;1.35;;
23113;SDS011;11726;50.122;8.832;2022-12-29T07:19:35;2.38;;;1.60;;
23113;SDS011;11726;50.122;8.832;2022-12-29T07:22:02;2.22;;;1.27;;
23113;SDS011;11726;50.122;8.832;2022-12-29T07:24:29;4.18;;;1.80;;
23113;SDS011;11726;50.122;8.832;2022-12-29T07:26:55;2.85;;;1.55;;
23113;SDS011;11726;50.122;8.832;2022-12-29T07:29:22;4.10;;;1.58;;
23113;SDS011;11726;50.122;8.832;2022-12-29T07:31:49;2.70;;;1.65;;
23113;SDS011;11726;50.122;8.832;2022-12-29T07:34:16;3.05;;;1.70;;
23113;SDS011;11726;50.122;8.832;2022-12-29T07:36:42;3.20;;;1.63;;
23113;SDS011;11726;50.122;8.832;2022-12-29T07:39:09;2.97;;;1.67;;
23113;SDS011;11726;50.122;8.832;2022-12-29T07:41:35;1.63;;;1.30;;
23113;SDS011;11726;50.122;8.832;2022-12-29T07:44:02;2.83;;;1.70;;
23113;SDS011;11726;50.122;8.832;2022-12-29T07:46:29;3.50;;;1.80;;
23113;SDS011;11726;50.122;8.832;2022-12-29T07:49:16;3.45;;;1.40;;
23113;SDS011;11726;50.122;8.832;2022-12-29T07:51:42;2.45;;;1.40;;
23113;SDS011;11726;50.122;8.832;2022-12-29T07:54:09;2.58;;;1.70;;
23113;SDS011;11726;50.122;8.832;2022-12-29T07:56:36;3.33;;;1.70;;
23113;SDS011;11726;50.122;8.832;2022-12-29T07:59:02;3.30;;;1.50;;
23113;SDS011;11726;50.122;8.832;2022-12-29T08:01:29;3.70;;;1.77;;
23113;SDS011;11726;50.122;8.832;2022-12-29T08:03:56;3.83;;;1.70;;
23113;SDS011;11726;50.122;8.832;2022-12-29T08:06:23;3.60;;;1.63;;
23113;SDS011;11726;50.122;8.832;2022-12-29T08:08:49;4.13;;;1.70;;
23113;SDS011;11726;50.122;8.832;2022-12-29T08:11:16;5.65;;;1.77;;
23113;SDS011;11726;50.122;8.832;2022-12-29T08:13:43;4.63;;;1.70;;
23113;SDS011;11726;50.122;8.832;2022-12-29T08:16:09;6.82;;;1.73;;
23113;SDS011;11726;50.122;8.832;2022-12-29T08:18:36;3.83;;;1.70;;
23113;SDS011;11726;50.122;8.832;2022-12-29T08:21:03;5.30;;;1.90;;
23113;SDS011;11726;50.122;8.832;2022-12-29T08:23:30;4.20;;;1.95;;
23113;SDS011;11726;50.122;8.832;2022-12-29T08:26:00;9.18;;;2.00;;
23113;SDS011;11726;50.122;8.832;2022-12-29T08:28:29;4.00;;;1.70;;
23113;SDS011;11726;50.122;8.832;2022-12-29T08:31:00;4.63;;;1.70;;
23113;SDS011;11726;50.122;8.832;2022-12-29T08:33:28;8.15;;;2.15;;
23113;SDS011;11726;50.122;8.832;2022-12-29T08:36:01;5.32;;;1.90;;
23113;SDS011;11726;50.122;8.832;2022-12-29T08:38:30;4.53;;;2.13;;
23113;SDS011;11726;50.122;8.832;2022-12-29T08:40:57;4.68;;;2.05;;
23113;SDS011;11726;50.122;8.832;2022-12-29T08:43:24;2.78;;;1.85;;
23113;SDS011;11726;50.122;8.832;2022-12-29T08:45:51;4.63;;;1.98;;
23113;SDS011;11726;50.122;8.832;2022-12-29T08:48:18;3.95;;;2.05;;
23113;SDS011;11726;50.122;8.832;2022-12-29T08:50:48;4.45;;;1.70;;
23113;SDS011;11726;50.122;8.832;2022-12-29T08:53:15;2.42;;;1.80;;
23113;SDS011;11726;50.122;8.832;2022-12-29T08:55:46;4.30;;;1.80;;
23113;SDS011;11726;50.122;8.832;2022-12-29T08:58:27;4.28;;;1.80;;
23113;SDS011;11726;50.122;8.832;2022-12-29T09:00:54;7.82;;;2.00;;
23113;SDS011;11726;50.122;8.832;2022-12-29T09:03:23;5.30;;;1.98;;
23113;SDS011;11726;50.122;8.832;2022-12-29T09:06:10;3.55;;;2.05;;
23113;SDS011;11726;50.122;8.832;2022-12-29T09:08:37;5.40;;;2.03;;
23113;SDS011;11726;50.122;8.832;2022-12-29T09:11:07;5.90;;;2.10;;
23113;SDS011;11726;50.122;8.832;2022-12-29T09:13:39;7.45;;;2.20;;
23113;SDS011;11726;50.122;8.832;2022-12-29T09:16:06;3.70;;;2.30;;
23113;SDS011;11726;50.122;8.832;2022-12-29T09:18:34;3.13;;;2.20;;
23113;SDS011;11726;50.122;8.832;2022-12-29T09:21:01;4.28;;;2.60;;
23113;SDS011;11726;50.122;8.832;2022-12-29T09:23:30;5.03;;;2.70;;
23113;SDS011;11726;50.122;8.832;2022-12-29T09:25:57;7.97;;;3.05;;
23113;SDS011;11726;50.122;8.832;2022-12-29T09:28:24;6.60;;;2.80;;
23113;SDS011;11726;50.122;8.832;2022-12-29T09:30:51;5.15;;;2.90;;
23113;SDS011;11726;50.122;8.832;2022-12-29T09:33:18;5.00;;;2.70;;
23113;SDS011;11726;50.122;8.832;2022-12-29T09:35:45;5.43;;;2.78;;
23113;SDS011;11726;50.122;8.832;2022-12-29T09:38:23;8.80;;;3.08;;
23113;SDS011;11726;50.122;8.832;2022-12-29T09:41:00;5.13;;;2.45;;
23113;SDS011;11726;50.122;8.832;2022-12-29T09:46:37;4.57;;;2.60;;
23113;SDS011;11726;50.122;8.832;2022-12-29T09:52:08;7.03;;;3.25;;
23113;SDS011;11726;50.122;8.832;2022-12-29T09:54:59;7.55;;;3.45;;
23113;SDS011;11726;50.122;8.832;2022-12-29T09:57:43;6.63;;;4.13;;
23113;SDS011;11726;50.122;8.832;2022-12-29T10:00:16;7.65;;;4.30;;
23113;SDS011;11726;50.122;8.832;2022-12-29T10:02:46;7.75;;;4.30;;
23113;SDS011;11726;50.122;8.832;2022-12-29T10:05:20;6.15;;;3.72;;
23113;SDS011;11726;50.122;8.832;2022-12-29T10:10:42;9.70;;;3.75;;
23113;SDS011;11726;50.122;8.832;2022-12-29T10:19:43;7.90;;;3.70;;
23113;SDS011;11726;50.122;8.832;2022-12-29T10:22:30;3.67;;;1.90;;
23113;SDS011;11726;50.122;8.832;2022-12-29T10:25:20;2.67;;;1.27;;
23113;SDS011;11726;50.122;8.832;2022-12-29T10:27:56;1.70;;;0.93;;
23113;SDS011;11726;50.122;8.832;2022-12-29T10:30:27;1.63;;;1.00;;
23113;SDS011;11726;50.122;8.832;2022-12-29T10:32:56;1.45;;;0.90;;
23113;SDS011;11726;50.122;8.832;2022-12-29T10:35:29;2.05;;;0.93;;
23113;SDS011;11726;50.122;8.832;2022-12-29T10:38:03;1.20;;;1.10;;
23113;SDS011;11726;50.122;8.832;2022-12-29T10:40:57;1.58;;;1.05;;
23113;SDS011;11726;50.122;8.832;2022-12-29T10:43:29;1.50;;;1.10;;
23113;SDS011;11726;50.122;8.832;2022-12-29T10:46:10;3.45;;;1.23;;
23113;SDS011;11726;50.122;8.832;2022-12-29T10:48:44;1.52;;;1.00;;
23113;SDS011;11726;50.122;8.832;2022-12-29T10:51:22;3.40;;;1.27;;
23113;SDS011;11726;50.122;8.832;2022-12-29T10:53:55;1.33;;;1.00;;
23113;SDS011;11726;50.122;8.832;2022-12-29T10:56:46;3.40;;;0.95;;
23113;SDS011;11726;50.122;8.832;2022-12-29T10:59:24;2.47;;;1.20;;
23113;SDS011;11726;50.122;8.832;2022-12-29T11:01:57;1.35;;;0.90;;
23113;SDS011;11726;50.122;8.832;2022-12-29T11:07:21;2.60;;;1.20;;
23113;SDS011;11726;50.122;8.832;2022-12-29T11:09:52;4.50;;;2.08;;
23113;SDS011;11726;50.122;8.832;2022-12-29T11:15:11;1.20;;;1.10;;
23113;SDS011;11726;50.122;8.832;2022-12-29T11:20:29;2.30;;;1.00;;
23113;SDS011;11726;50.122;8.832;2022-12-29T11:22:57;1.67;;;1.02;;
23113;SDS011;11726;50.122;8.832;2022-12-29T11:25:24;1.90;;;1.05;;
23113;SDS011;11726;50.122;8.832;2022-12-29T11:27:59;3.20;;;0.98;;
23113;SDS011;11726;50.122;8.832;2022-12-29T11:30:29;2.78;;;0.95;;
23113;SDS011;11726;50.122;8.832;2022-12-29T11:32:57;2.85;;;0.90;;
23113;SDS011;11726;50.122;8.832;2022-12-29T11:37:58;1.93;;;1.00;;
23113;SDS011;11726;50.122;8.832;2022-12-29T11:40:28;1.65;;;1.00;;
23113;SDS011;11726;50.122;8.832;2022-12-29T11:42:56;1.52;;;1.17;;
23113;SDS011;11726;50.122;8.832;2022-12-29T11:45:26;2.60;;;1.42;;
23113;SDS011;11726;50.122;8.832;2022-12-29T11:48:00;2.47;;;1.10;;
23113;SDS011;11726;50.122;8.832;2022-12-29T11:50:35;4.18;;;1.52;;
23113;SDS011;11726;50.122;8.832;2022-12-29T11:53:20;3.17;;;1.27;;
23113;SDS011;11726;50.122;8.832;2022-12-29T11:55:54;4.63;;;1.20;;
23113;SDS011;11726;50.122;8.832;2022-12-29T11:58:33;2.35;;;1.13;;
23113;SDS011;11726;50.122;8.832;2022-12-29T12:04:15;2.63;;;1.08;;
23113;SDS011;11726;50.122;8.832;2022-12-29T12:09:53;3.20;;;1.00;;
23113;SDS011;11726;50.122;8.832;2022-12-29T12:12:35;2.85;;;1.30;;
23113;SDS011;11726;50.122;8.832;2022-12-29T12:15:08;2.78;;;0.90;;
23113;SDS011;11726;50.122;8.832;2022-12-29T12:17:53;2.55;;;1.00;;
23113;SDS011;11726;50.122;8.832;2022-12-29T12:20:50;1.73;;;1.03;;
23113;SDS011;11726;50.122;8.832;2022-12-29T12:28:46;3.63;;;0.88;;
23113;SDS011;11726;50.122;8.832;2022-12-29T12:31:30;2.27;;;0.70;;
23113;SDS011;11726;50.122;8.832;2022-12-29T12:34:51;2.55;;;1.08;;
23113;SDS011;11726;50.122;8.832;2022-12-29T12:37:07;1.65;;;0.60;;
23113;SDS011;11726;50.122;8.832;2022-12-29T12:40:25;2.40;;;0.80;;
23113;SDS011;11726;50.122;8.832;2022-12-29T12:48:06;2.33;;;1.00;;
23113;SDS011;11726;50.122;8.832;2022-12-29T12:50:56;2.63;;;0.85;;
23113;SDS011;11726;50.122;8.832;2022-12-29T12:56:41;1.95;;;0.85;;
23113;SDS011;11726;50.122;8.832;2022-12-29T12:59:32;2.15;;;0.82;;
23113;SDS011;11726;50.122;8.832;2022-12-29T13:02:16;2.60;;;0.75;;
23113;SDS011;11726;50.122;8.832;2022-12-29T13:10:54;0.90;;;0.85;;
23113;SDS011;11726;50.122;8.832;2022-12-29T13:16:34;4.25;;;1.02;;
23113;SDS011;11726;50.122;8.832;2022-12-29T13:22:08;1.48;;;0.90;;
23113;SDS011;11726;50.122;8.832;2022-12-29T13:25:36;2.30;;;1.30;;
23113;SDS011;11726;50.122;8.832;2022-12-29T13:30:45;2.35;;;1.10;;
23113;SDS011;11726;50.122;8.832;2022-12-29T13:33:29;4.03;;;1.50;;
23113;SDS011;11726;50.122;8.832;2022-12-29T13:36:26;2.38;;;1.40;;
23113;SDS011;11726;50.122;8.832;2022-12-29T13:39:01;1.60;;;1.10;;
23113;SDS011;11726;50.122;8.832;2022-12-29T13:41:46;2.95;;;1.17;;
23113;SDS011;11726;50.122;8.832;2022-12-29T13:44:19;2.10;;;0.98;;
23113;SDS011;11726;50.122;8.832;2022-12-29T13:47:05;1.77;;;0.85;;
23113;SDS011;11726;50.122;8.832;2022-12-29T13:49:43;2.63;;;1.20;;
23113;SDS011;11726;50.122;8.832;2022-12-29T13:52:12;2.70;;;1.08;;
23113;SDS011;11726;50.122;8.832;2022-12-29T13:57:49;3.00;;;1.40;;
23113;SDS011;11726;50.122;8.832;2022-12-29T14:00:26;2.42;;;1.08;;
23113;SDS011;11726;50.122;8.832;2022-12-29T14:06:03;3.53;;;1.30;;
23113;SDS011;11726;50.122;8.832;2022-12-29T14:08:37;2.55;;;0.98;;
23113;SDS011;11726;50.122;8.832;2022-12-29T14:11:07;2.55;;;1.08;;
23113;SDS011;11726;50.122;8.832;2022-12-29T14:13:40;2.38;;;1.10;;
23113;SDS011;11726;50.122;8.832;2022-12-29T14:16:24;3.03;;;1.08;;
23113;SDS011;11726;50.122;8.832;2022-12-29T14:18:54;1.90;;;1.00;;
23113;SDS011;11726;50.122;8.832;2022-12-29T14:21:24;4.25;;;1.10;;
23113;SDS011;11726;50.122;8.832;2022-12-29T14:34:47;4.60;;;1.17;;
23113;SDS011;11726;50.122;8.832;2022-12-29T14:37:22;2.25;;;1.00;;
23113;SDS011;11726;50.122;8.832;2022-12-29T14:42:51;5.05;;;1.20;;
23113;SDS011;11726;50.122;8.832;2022-12-29T14:45:30;3.30;;;1.25;;
23113;SDS011;11726;50.122;8.832;2022-12-29T14:48:03;2.88;;;1.20;;
23113;SDS011;11726;50.122;8.832;2022-12-29T14:50:54;5.60;;;1.17;;
23113;SDS011;11726;50.122;8.832;2022-12-29T14:56:16;5.10;;;1.00;;
23113;SDS011;11726;50.122;8.832;2022-12-29T14:59:03;4.68;;;1.50;;
23113;SDS011;11726;50.122;8.832;2022-12-29T15:01:46;2.92;;;1.10;;
23113;SDS011;11726;50.122;8.832;2022-12-29T15:04:20;3.72;;;1.27;;
23113;SDS011;11726;50.122;8.832;2022-12-29T15:06:50;2.15;;;1.10;;
23113;SDS011;11726;50.122;8.832;2022-12-29T15:14:56;4.68;;;1.10;;
23113;SDS011;11726;50.122;8.832;2022-12-29T15:17:31;5.68;;;1.30;;
23113;SDS011;11726;50.122;8.832;2022-12-29T15:20:17;3.65;;;1.40;;
23113;SDS011;11726;50.122;8.832;2022-12-29T15:23:02;2.97;;;1.13;;
23113;SDS011;11726;50.122;8.832;2022-12-29T15:25:36;3.97;;;1.10;;
23113;SDS011;11726;50.122;8.832;2022-12-29T15:28:12;3.50;;;1.08;;
23113;SDS011;11726;50.122;8.832;2022-12-29T15:30:49;3.85;;;1.05;;
23113;SDS011;11726;50.122;8.832;2022-12-29T15:33:18;3.20;;;1.30;;
23113;SDS011;11726;50.122;8.832;2022-12-29T15:35:49;5.57;;;1.30;;
23113;SDS011;11726;50.122;8.832;2022-12-29T15:38:24;3.08;;;1.38;;
23113;SDS011;11726;50.122;8.832;2022-12-29T15:41:00;4.72;;;1.40;;
23113;SDS011;11726;50.122;8.832;2022-12-29T15:46:15;3.67;;;1.35;;
23113;SDS011;11726;50.122;8.832;2022-12-29T15:48:42;3.83;;;1.38;;
23113;SDS011;11726;50.122;8.832;2022-12-29T15:51:15;4.32;;;1.65;;
23113;SDS011;11726;50.122;8.832;2022-12-29T15:53:46;6.00;;;1.35;;
23113;SDS011;11726;50.122;8.832;2022-12-29T15:56:14;2.90;;;1.15;;
23113;SDS011;11726;50.122;8.832;2022-12-29T15:58:43;3.67;;;1.50;;
23113;SDS011;11726;50.122;8.832;2022-12-29T16:01:18;4.32;;;1.40;;
23113;SDS011;11726;50.122;8.832;2022-12-29T16:04:06;3.05;;;1.27;;
23113;SDS011;11726;50.122;8.832;2022-12-29T16:06:35;3.72;;;1.38;;
23113;SDS011;11726;50.122;8.832;2022-12-29T16:09:45;3.25;;;1.17;;
23113;SDS011;11726;50.122;8.832;2022-12-29T16:12:00;5.43;;;1.98;;
23113;SDS011;11726;50.122;8.832;2022-12-29T16:14:43;2.70;;;1.33;;
23113;SDS011;11726;50.122;8.832;2022-12-29T16:17:17;3.33;;;1.30;;
23113;SDS011;11726;50.122;8.832;2022-12-29T16:19:49;3.58;;;1.35;;
23113;SDS011;11726;50.122;8.832;2022-12-29T16:22:22;5.85;;;1.67;;
23113;SDS011;11726;50.122;8.832;2022-12-29T16:24:55;3.50;;;1.33;;
23113;SDS011;11726;50.122;8.832;2022-12-29T16:27:37;7.38;;;1.60;;
23113;SDS011;11726;50.122;8.832;2022-12-29T16:30:07;4.70;;;1.13;;
23113;SDS011;11726;50.122;8.832;2022-12-29T16:32:59;4.45;;;1.33;;
23113;SDS011;11726;50.122;8.832;2022-12-29T16:35:28;2.33;;;0.93;;
23113;SDS011;11726;50.122;8.832;2022-12-29T16:38:14;4.03;;;1.13;;
23113;SDS011;11726;50.122;8.832;2022-12-29T16:40:54;2.40;;;1.10;;
23113;SDS011;11726;50.122;8.832;2022-12-29T16:43:26;3.22;;;1.05;;
23113;SDS011;11726;50.122;8.832;2022-12-29T16:48:34;3.67;;;1.08;;
23113;SDS011;11726;50.122;8.832;2022-12-29T16:51:15;4.57;;;1.35;;
23113;SDS011;11726;50.122;8.832;2022-12-29T16:53:51;3.92;;;1.10;;
23113;SDS011;11726;50.122;8.832;2022-12-29T16:56:20;5.10;;;1.20;;
23113;SDS011;11726;50.122;8.832;2022-12-29T16:58:51;3.70;;;1.20;;
23113;SDS011;11726;50.122;8.832;2022-12-29T17:01:24;6.18;;;1.38;;
23113;SDS011;11726;50.122;8.832;2022-12-29T17:03:51;3.17;;;1.20;;
23113;SDS011;11726;50.122;8.832;2022-12-29T17:06:23;3.40;;;1.05;;
23113;SDS011;11726;50.122;8.832;2022-12-29T17:08:50;2.15;;;0.90;;
23113;SDS011;11726;50.122;8.832;2022-12-29T17:11:24;2.42;;;0.90;;
23113;SDS011;11726;50.122;8.832;2022-12-29T17:14:23;4.47;;;1.20;;
23113;SDS011;11726;50.122;8.832;2022-12-29T17:16:58;2.30;;;0.90;;
23113;SDS011;11726;50.122;8.832;2022-12-29T17:19:30;3.97;;;1.20;;
23113;SDS011;11726;50.122;8.832;2022-12-29T17:21:59;2.80;;;1.20;;
23113;SDS011;11726;50.122;8.832;2022-12-29T17:24:26;3.70;;;1.15;;
23113;SDS011;11726;50.122;8.832;2022-12-29T17:26:54;5.65;;;1.25;;
23113;SDS011;11726;50.122;8.832;2022-12-29T17:31:55;6.80;;;1.40;;